Time;durP1;ratioP1;P1;durP2;ratioP2;P2;SDS_P1;SDS_P2;PMS_P1;PMS_P2;Temp;Humidity;BMP_temperature;BMP_pressure;BME280_temperature;BME280_humidity;BME280_pressure;Samples;Min_cycle;Max_cycle;Signal;HPM_P1;HPM_P2
2023/06/09 00:01:11;;;;;;;8.38;7.25;;;;;;;;;;6201936;28;20042;-77
2023/06/09 00:04:13;;;;;;;8.40;7.10;;;;;;;;;;6250792;28;20060;-76
2023/06/09 00:07:18;;;;;;;8.57;7.00;;;;;;;;;;6218674;28;20049;-77
2023/06/09 00:10:19;;;;;;;10.57;8.02;;;;;;;;;;6221719;28;20041;-78
2023/06/09 00:13:21;;;;;;;8.48;7.22;;;;;;;;;;6221566;28;20054;-77
2023/06/09 00:16:23;;;;;;;9.63;7.90;;;;;;;;;;6208190;28;20065;-77
2023/06/09 00:19:27;;;;;;;10.07;8.00;;;;;;;;;;6222300;28;20425;-78
2023/06/09 00:22:31;;;;;;;8.88;7.55;;;;;;;;;;6220752;28;20049;-78
2023/06/09 00:25:33;;;;;;;9.00;7.72;;;;;;;;;;6219783;28;20069;-77
2023/06/09 00:28:35;;;;;;;9.60;7.47;;;;;;;;;;6225584;28;20049;-78
2023/06/09 00:31:37;;;;;;;10.95;8.07;;;;;;;;;;6229011;28;20056;-78
2023/06/09 00:34:39;;;;;;;8.63;7.47;;;;;;;;;;6231369;28;20049;-78
2023/06/09 00:37:40;;;;;;;9.93;7.35;;;;;;;;;;6222981;28;20052;-78
2023/06/09 00:40:42;;;;;;;10.80;7.43;;;;;;;;;;6233119;28;20380;-78
2023/06/09 00:43:50;;;;;;;8.38;6.90;;;;;;;;;;6214918;28;20053;-78
2023/06/09 00:46:52;;;;;;;8.85;7.00;;;;;;;;;;6223730;28;20100;-77
2023/06/09 00:49:54;;;;;;;8.80;7.07;;;;;;;;;;6209418;28;20041;-76
2023/06/09 00:52:56;;;;;;;9.90;6.90;;;;;;;;;;6221556;28;20038;-78
2023/06/09 00:55:58;;;;;;;8.30;6.97;;;;;;;;;;6219977;28;20061;-77
2023/06/09 00:59:00;;;;;;;9.52;7.30;;;;;;;;;;6221020;28;20041;-78
2023/06/09 01:02:04;;;;;;;8.43;6.65;;;;;;;;;;6220273;28;20420;-77
2023/06/09 01:05:08;;;;;;;8.40;7.15;;;;;;;;;;6217676;28;20060;-77
2023/06/09 01:08:32;;;;;;;8.00;6.65;;;;;;;;;;6250702;28;20045;-77
2023/06/09 01:11:50;;;;;;;10.05;7.60;;;;;;;;;;6253336;28;20049;-78
2023/06/09 01:15:31;;;;;;;10.05;7.65;;;;;;;;;;6230104;28;20057;-78
2023/06/09 01:18:35;;;;;;;10.02;7.63;;;;;;;;;;6237452;28;20044;-78
2023/06/09 01:21:43;;;;;;;7.93;6.95;;;;;;;;;;6225625;28;20393;-76
2023/06/09 01:25:04;;;;;;;10.10;7.47;;;;;;;;;;6234804;28;20046;-78
2023/06/09 01:28:13;;;;;;;10.93;7.00;;;;;;;;;;6220581;28;20103;-76
2023/06/09 01:31:16;;;;;;;9.43;6.93;;;;;;;;;;6219877;28;20037;-76
2023/06/09 01:34:18;;;;;;;7.50;6.70;;;;;;;;;;6203354;28;20165;-76
2023/06/09 01:37:20;;;;;;;9.68;6.80;;;;;;;;;;6228593;28;20041;-78
2023/06/09 01:40:22;;;;;;;8.23;6.75;;;;;;;;;;6228560;28;20147;-77
2023/06/09 01:43:24;;;;;;;10.00;7.43;;;;;;;;;;6217364;28;20072;-78
2023/06/09 01:46:26;;;;;;;8.23;6.72;;;;;;;;;;6221810;28;20529;-76
2023/06/09 01:49:45;;;;;;;9.20;7.03;;;;;;;;;;6219244;28;20042;-77
2023/06/09 01:53:01;;;;;;;9.57;7.15;;;;;;;;;;6227257;28;20050;-78
2023/06/09 01:56:19;;;;;;;10.10;6.88;;;;;;;;;;6223683;28;20171;-75
2023/06/09 01:59:25;;;;;;;10.30;6.65;;;;;;;;;;6240301;28;20089;-78
2023/06/09 02:02:30;;;;;;;8.40;6.65;;;;;;;;;;6228911;28;20045;-76
2023/06/09 02:05:35;;;;;;;7.90;6.30;;;;;;;;;;6237538;28;20056;-76
2023/06/09 02:08:37;;;;;;;9.10;6.93;;;;;;;;;;6228496;28;20058;-78
2023/06/09 02:11:39;;;;;;;9.05;7.20;;;;;;;;;;6230341;28;20519;-76
2023/06/09 02:14:49;;;;;;;9.73;7.25;;;;;;;;;;6231711;28;20041;-77
2023/06/09 02:17:51;;;;;;;9.77;7.03;;;;;;;;;;6239186;28;20034;-77
2023/06/09 02:20:53;;;;;;;8.68;6.80;;;;;;;;;;6203196;28;20093;-78
2023/06/09 02:23:55;;;;;;;7.40;6.28;;;;;;;;;;6199551;28;20042;-78
2023/06/09 02:26:57;;;;;;;8.55;7.07;;;;;;;;;;6224434;28;20038;-78
2023/06/09 02:29:58;;;;;;;9.15;7.10;;;;;;;;;;6233726;28;20064;-79
2023/06/09 02:33:01;;;;;;;9.60;7.13;;;;;;;;;;6232635;28;20637;-78
2023/06/09 02:36:03;;;;;;;8.68;6.82;;;;;;;;;;6213257;28;20538;-78
2023/06/09 02:39:05;;;;;;;9.00;6.88;;;;;;;;;;6224822;28;20064;-79
2023/06/09 02:42:07;;;;;;;9.88;6.93;;;;;;;;;;6222799;28;20073;-79
2023/06/09 02:45:09;;;;;;;9.32;6.82;;;;;;;;;;6209736;28;20397;-78
2023/06/09 02:48:13;;;;;;;8.43;6.97;;;;;;;;;;6213509;28;20046;-78
2023/06/09 02:51:15;;;;;;;9.65;6.95;;;;;;;;;;6259587;28;20100;-78
2023/06/09 02:54:18;;;;;;;8.73;6.75;;;;;;;;;;6208141;28;20038;-79
2023/06/09 02:57:21;;;;;;;;;;;;;;;;;;6224386;28;20053;-79
2023/06/09 03:00:23;;;;;;;7.97;6.60;;;;;;;;;;6227675;28;19929;-79
2023/06/09 03:03:28;;;;;;;8.45;6.47;;;;;;;;;;6212730;28;20038;-79
2023/06/09 03:06:35;;;;;;;8.15;6.75;;;;;;;;;;6224330;28;20049;-80
2023/06/09 03:09:38;;;;;;;9.15;6.88;;;;;;;;;;6228135;28;20144;-79
2023/06/09 03:12:41;;;;;;;10.15;6.90;;;;;;;;;;6227938;28;20038;-79
2023/06/09 03:15:44;;;;;;;8.35;6.57;;;;;;;;;;6231779;28;20038;-78
2023/06/09 03:18:47;;;;;;;9.32;6.95;;;;;;;;;;6251980;28;20059;-78
2023/06/09 03:21:49;;;;;;;11.45;7.30;;;;;;;;;;6227822;28;20042;-79
2023/06/09 03:24:51;;;;;;;9.48;7.22;;;;;;;;;;6225194;28;20045;-79
2023/06/09 03:27:54;;;;;;;;;;;;;;;;;;6214522;28;20042;-78
2023/06/09 03:30:56;;;;;;;9.07;6.88;;;;;;;;;;6228317;28;19923;-78
2023/06/09 03:33:58;;;;;;;9.00;6.88;;;;;;;;;;6227281;28;20060;-80
2023/06/09 03:37:00;;;;;;;9.48;6.45;;;;;;;;;;6228376;28;20057;-81
2023/06/09 03:40:04;;;;;;;10.27;6.90;;;;;;;;;;6223967;28;20045;-78
2023/06/09 03:43:07;;;;;;;8.07;6.80;;;;;;;;;;6218395;28;20049;-78
2023/06/09 03:46:09;;;;;;;7.57;6.32;;;;;;;;;;6221107;28;20523;-80
2023/06/09 03:49:11;;;;;;;9.20;7.10;;;;;;;;;;6227407;28;20042;-81
2023/06/09 03:52:13;;;;;;;9.10;6.72;;;;;;;;;;6218747;28;20048;-80
2023/06/09 03:55:20;;;;;;;9.35;7.40;;;;;;;;;;6220707;28;20071;-80
2023/06/09 03:58:22;;;;;;;11.63;8.00;;;;;;;;;;6237950;28;20508;-81
2023/06/09 04:01:25;;;;;;;9.75;7.10;;;;;;;;;;6226788;28;20475;-79
2023/06/09 04:04:27;;;;;;;9.60;6.85;;;;;;;;;;6245507;28;20045;-80
2023/06/09 04:07:30;;;;;;;10.10;6.72;;;;;;;;;;6222794;28;20037;-81
2023/06/09 04:10:32;;;;;;;10.55;7.72;;;;;;;;;;6256106;28;20436;-81
2023/06/09 04:13:33;;;;;;;9.05;7.10;;;;;;;;;;6228306;28;20064;-81
2023/06/09 04:16:36;;;;;;;9.73;7.22;;;;;;;;;;6240441;28;20184;-81
2023/06/09 04:19:38;;;;;;;9.25;6.90;;;;;;;;;;6214700;28;20050;-82
2023/06/09 04:22:48;;;;;;;9.55;6.70;;;;;;;;;;6229898;28;20453;-81
2023/06/09 04:25:53;;;;;;;9.65;6.75;;;;;;;;;;6210252;28;20065;-79
2023/06/09 04:28:56;;;;;;;10.48;7.00;;;;;;;;;;6231411;28;20514;-81
2023/06/09 04:31:58;;;;;;;9.02;6.80;;;;;;;;;;6227756;28;20064;-80
2023/06/09 04:35:04;;;;;;;8.27;6.43;;;;;;;;;;6216426;28;20176;-81
2023/06/09 04:38:07;;;;;;;9.77;6.27;;;;;;;;;;6208881;28;20609;-81
2023/06/09 04:41:11;;;;;;;10.05;6.95;;;;;;;;;;6224930;28;20073;-81
2023/06/09 04:44:15;;;;;;;9.30;7.00;;;;;;;;;;6227259;28;20049;-81
2023/06/09 04:47:19;;;;;;;9.85;7.22;;;;;;;;;;6254457;28;20168;-80
2023/06/09 04:50:21;;;;;;;8.75;6.80;;;;;;;;;;6231070;28;20666;-79
2023/06/09 04:53:23;;;;;;;10.13;6.97;;;;;;;;;;6221004;28;20042;-79
2023/06/09 04:56:29;;;;;;;10.38;6.88;;;;;;;;;;6218333;28;20041;-81
2023/06/09 04:59:31;;;;;;;9.82;6.97;;;;;;;;;;6212375;28;20053;-82
2023/06/09 05:02:34;;;;;;;8.73;6.85;;;;;;;;;;6225114;28;20052;-81
2023/06/09 05:05:36;;;;;;;9.05;6.90;;;;;;;;;;6221325;28;20116;-80
2023/06/09 05:08:38;;;;;;;8.32;6.72;;;;;;;;;;6223300;28;20041;-79
2023/06/09 05:11:41;;;;;;;10.00;7.47;;;;;;;;;;6206534;28;20193;-81
2023/06/09 05:14:43;;;;;;;10.43;7.78;;;;;;;;;;6221617;28;20042;-82
2023/06/09 05:17:45;;;;;;;11.10;8.30;;;;;;;;;;6223944;28;20105;-81
2023/06/09 05:20:47;;;;;;;9.55;7.68;;;;;;;;;;6233211;28;20044;-81
2023/06/09 05:23:52;;;;;;;11.50;7.97;;;;;;;;;;6229053;28;20046;-80
2023/06/09 05:26:54;;;;;;;;;;;;;;;;;;6206831;28;20501;-81
2023/06/09 05:29:57;;;;;;;10.90;7.68;;;;;;;;;;6225042;28;20410;-81
2023/06/09 05:33:00;;;;;;;9.63;7.93;;;;;;;;;;6216648;28;20132;-81
2023/06/09 05:36:03;;;;;;;9.57;8.02;;;;;;;;;;6222070;28;20060;-81
2023/06/09 05:39:07;;;;;;;10.15;8.02;;;;;;;;;;6226955;28;20054;-79
2023/06/09 05:42:09;;;;;;;10.07;8.27;;;;;;;;;;6229981;28;20412;-80
2023/06/09 05:45:11;;;;;;;12.20;7.60;;;;;;;;;;6226736;28;20134;-80
2023/06/09 05:48:12;;;;;;;11.77;7.65;;;;;;;;;;6229191;28;20051;-79
2023/06/09 05:51:15;;;;;;;10.13;7.82;;;;;;;;;;6242850;28;20048;-80
2023/06/09 05:54:18;;;;;;;10.90;7.60;;;;;;;;;;6224725;28;20041;-80
2023/06/09 05:57:20;;;;;;;9.63;7.25;;;;;;;;;;6225147;28;20042;-81
2023/06/09 06:00:29;;;;;;;9.57;7.07;;;;;;;;;;6225578;28;20053;-77
2023/06/09 06:03:33;;;;;;;9.43;7.70;;;;;;;;;;6242358;28;20049;-79
2023/06/09 06:06:37;;;;;;;10.25;7.40;;;;;;;;;;6228206;28;20037;-78
2023/06/09 06:09:40;;;;;;;8.73;7.50;;;;;;;;;;6225676;28;20049;-79
2023/06/09 06:12:42;;;;;;;9.95;7.68;;;;;;;;;;6210901;28;20049;-80
2023/06/09 06:15:46;;;;;;;8.27;6.50;;;;;;;;;;6212087;28;20454;-79
2023/06/09 06:18:48;;;;;;;7.70;6.95;;;;;;;;;;6239157;28;20562;-80
2023/06/09 06:21:50;;;;;;;8.23;7.40;;;;;;;;;;6227875;28;20038;-80
2023/06/09 06:24:51;;;;;;;8.87;7.37;;;;;;;;;;6241393;28;20053;-80
2023/06/09 06:27:53;;;;;;;8.80;7.07;;;;;;;;;;6260317;28;20453;-81
2023/06/09 06:30:55;;;;;;;8.65;7.22;;;;;;;;;;6231323;28;20676;-79
2023/06/09 06:33:58;;;;;;;8.60;7.57;;;;;;;;;;6205774;28;20057;-81
2023/06/09 06:37:00;;;;;;;8.70;7.28;;;;;;;;;;6226648;28;20061;-80
2023/06/09 06:40:02;;;;;;;11.07;8.32;;;;;;;;;;6209687;28;20053;-78
2023/06/09 06:43:03;;;;;;;9.57;7.35;;;;;;;;;;6234370;28;20041;-79
2023/06/09 06:46:23;;;;;;;11.10;7.63;;;;;;;;;;6231708;28;20427;-80
2023/06/09 06:49:25;;;;;;;8.35;7.55;;;;;;;;;;6226354;28;20065;-79
2023/06/09 06:52:27;;;;;;;9.23;7.80;;;;;;;;;;6231959;28;20045;-79
2023/06/09 06:55:30;;;;;;;8.63;7.73;;;;;;;;;;6263742;28;20050;-79
2023/06/09 06:58:36;;;;;;;8.88;7.25;;;;;;;;;;6228663;28;20045;-79
2023/06/09 07:01:39;;;;;;;8.10;7.30;;;;;;;;;;6228309;28;20046;-81
2023/06/09 07:04:40;;;;;;;7.88;7.10;;;;;;;;;;6229051;28;20057;-79
2023/06/09 07:07:45;;;;;;;7.65;6.63;;;;;;;;;;6223465;28;20431;-81
2023/06/09 07:10:47;;;;;;;10.30;7.50;;;;;;;;;;6234438;28;20045;-81
2023/06/09 07:13:51;;;;;;;7.93;6.72;;;;;;;;;;6237334;28;20042;-78
2023/06/09 07:16:55;;;;;;;7.47;6.78;;;;;;;;;;6215265;28;20045;-78
2023/06/09 07:19:58;;;;;;;7.68;6.75;;;;;;;;;;6230310;28;20053;-79
2023/06/09 07:23:00;;;;;;;7.35;6.65;;;;;;;;;;6231683;28;20072;-78
2023/06/09 07:26:03;;;;;;;7.25;6.60;;;;;;;;;;6229058;28;20080;-77
2023/06/09 07:29:06;;;;;;;7.63;6.40;;;;;;;;;;6232169;28;20050;-77
2023/06/09 07:32:10;;;;;;;8.45;6.50;;;;;;;;;;6234286;28;20420;-77
2023/06/09 07:35:13;;;;;;;7.00;6.30;;;;;;;;;;6224928;28;20075;-79
2023/06/09 07:38:16;;;;;;;12.30;6.80;;;;;;;;;;6231417;28;20527;-80
2023/06/09 07:41:18;;;;;;;7.03;6.35;;;;;;;;;;6229144;28;20045;-78
2023/06/09 07:44:20;;;;;;;7.10;6.40;;;;;;;;;;6227657;28;20053;-80
2023/06/09 07:47:21;;;;;;;7.47;6.75;;;;;;;;;;6224504;28;20401;-76
2023/06/09 07:50:23;;;;;;;6.70;6.03;;;;;;;;;;6227192;28;20087;-77
2023/06/09 07:53:25;;;;;;;5.83;5.33;;;;;;;;;;6230194;28;20046;-77
2023/06/09 07:56:27;;;;;;;6.93;6.30;;;;;;;;;;6228210;28;20056;-79
2023/06/09 07:59:28;;;;;;;6.78;6.13;;;;;;;;;;6234081;28;20049;-78
2023/06/09 08:02:32;;;;;;;6.82;5.75;;;;;;;;;;6232923;28;20049;-79
2023/06/09 08:05:34;;;;;;;6.00;5.50;;;;;;;;;;6214594;28;20053;-80
2023/06/09 08:08:37;;;;;;;6.30;5.70;;;;;;;;;;6235682;28;20060;-78
2023/06/09 08:11:39;;;;;;;6.45;5.85;;;;;;;;;;6235104;28;20042;-79
2023/06/09 08:14:41;;;;;;;7.10;6.00;;;;;;;;;;6233459;28;20450;-79
2023/06/09 08:17:43;;;;;;;;;;;;;;;;;;6241466;28;20054;-80
2023/06/09 08:20:45;;;;;;;6.75;5.50;;;;;;;;;;6238824;28;20490;-77
2023/06/09 08:23:47;;;;;;;6.10;5.55;;;;;;;;;;6239837;28;20056;-79
2023/06/09 08:26:50;;;;;;;6.43;5.57;;;;;;;;;;6231840;28;20050;-79
2023/06/09 08:29:51;;;;;;;6.83;5.40;;;;;;;;;;6230206;28;20050;-76
2023/06/09 08:32:53;;;;;;;7.65;5.65;;;;;;;;;;6229545;28;20179;-79
2023/06/09 08:35:55;;;;;;;6.23;5.70;;;;;;;;;;6231179;28;20052;-78
2023/06/09 08:38:56;;;;;;;56.17;46.13;;;;;;;;;;6237494;28;20046;-78
2023/06/09 08:42:01;;;;;;;14.50;13.23;;;;;;;;;;6236295;28;20092;-78
2023/06/09 08:45:05;;;;;;;8.30;6.78;;;;;;;;;;6274019;28;20064;-77
2023/06/09 08:48:11;;;;;;;6.28;5.65;;;;;;;;;;6234775;28;20045;-77
2023/06/09 08:51:13;;;;;;;6.28;5.68;;;;;;;;;;6233121;28;20048;-79
2023/06/09 08:54:15;;;;;;;9.57;5.38;;;;;;;;;;6232310;28;20049;-80
2023/06/09 08:57:18;;;;;;;8.18;5.28;;;;;;;;;;6231993;28;20523;-77
2023/06/09 09:00:21;;;;;;;5.68;5.18;;;;;;;;;;6232393;28;20053;-79
2023/06/09 09:03:23;;;;;;;5.85;5.35;;;;;;;;;;6224274;28;20056;-79
2023/06/09 09:06:25;;;;;;;6.40;5.15;;;;;;;;;;6225674;28;20052;-77
2023/06/09 09:09:26;;;;;;;6.77;5.30;;;;;;;;;;6231729;28;20053;-79
2023/06/09 09:12:56;;;;;;;6.28;5.28;;;;;;;;;;6234962;28;20053;-77
2023/06/09 09:16:01;;;;;;;6.60;5.05;;;;;;;;;;6238396;28;20116;-79
2023/06/09 09:19:03;;;;;;;5.55;5.10;;;;;;;;;;6223914;28;20112;-79
2023/06/09 09:22:08;;;;;;;5.32;4.82;;;;;;;;;;6234226;28;20439;-79
2023/06/09 09:25:20;;;;;;;5.95;5.35;;;;;;;;;;6213904;28;20061;-78
2023/06/09 09:28:22;;;;;;;5.50;5.00;;;;;;;;;;6233080;28;20056;-79
2023/06/09 09:31:39;;;;;;;6.80;4.97;;;;;;;;;;6214769;28;20452;-78
2023/06/09 09:34:44;;;;;;;5.10;4.70;;;;;;;;;;6233117;28;20132;-78
2023/06/09 09:37:45;;;;;;;6.15;5.20;;;;;;;;;;6218736;28;20132;-80
2023/06/09 09:40:50;;;;;;;5.57;4.97;;;;;;;;;;6236944;28;20078;-78
2023/06/09 09:43:56;;;;;;;5.32;4.93;;;;;;;;;;6242991;28;20042;-78
2023/06/09 09:46:59;;;;;;;5.60;4.95;;;;;;;;;;6237712;28;20075;-78
2023/06/09 09:50:01;;;;;;;7.25;5.40;;;;;;;;;;6238958;28;20042;-77
2023/06/09 09:53:04;;;;;;;5.35;4.85;;;;;;;;;;6221348;28;20050;-77
2023/06/09 09:56:06;;;;;;;6.40;5.28;;;;;;;;;;6222703;28;20041;-78
2023/06/09 09:59:08;;;;;;;5.55;5.05;;;;;;;;;;6250341;28;20056;-77
2023/06/09 10:02:16;;;;;;;6.65;5.40;;;;;;;;;;6247771;28;20046;-78
2023/06/09 10:05:19;;;;;;;6.15;5.55;;;;;;;;;;6245507;28;20041;-78
2023/06/09 10:08:27;;;;;;;7.95;5.35;;;;;;;;;;6246717;28;20046;-77
2023/06/09 10:11:31;;;;;;;5.32;4.82;;;;;;;;;;6250366;28;20052;-76
2023/06/09 10:14:34;;;;;;;6.07;5.50;;;;;;;;;;6251474;28;20061;-77
2023/06/09 10:17:36;;;;;;;6.30;5.60;;;;;;;;;;6265683;28;20057;-78
2023/06/09 10:20:42;;;;;;;6.13;5.53;;;;;;;;;;6241321;28;20037;-78
2023/06/09 10:23:44;;;;;;;10.18;5.53;;;;;;;;;;6244821;28;20048;-77
2023/06/09 10:26:48;;;;;;;6.95;5.68;;;;;;;;;;6224282;28;20042;-78
2023/06/09 10:29:51;;;;;;;6.30;5.70;;;;;;;;;;6238900;28;20053;-77
2023/06/09 10:33:04;;;;;;;6.72;6.13;;;;;;;;;;6255335;28;20046;-79
2023/06/09 10:36:09;;;;;;;6.47;5.88;;;;;;;;;;6239018;28;20050;-78
2023/06/09 10:39:18;;;;;;;6.53;5.93;;;;;;;;;;6251935;28;20044;-76
2023/06/09 10:42:38;;;;;;;7.63;5.82;;;;;;;;;;6277780;28;20056;-76
2023/06/09 10:45:54;;;;;;;7.35;6.43;;;;;;;;;;6235718;28;20087;-77
2023/06/09 10:48:55;;;;;;;7.03;6.32;;;;;;;;;;6227890;28;20183;-77
2023/06/09 10:51:57;;;;;;;8.75;6.80;;;;;;;;;;6220018;28;20042;-76
2023/06/09 10:55:12;;;;;;;7.40;6.43;;;;;;;;;;6212069;28;20064;-79
2023/06/09 10:58:36;;;;;;;7.50;6.80;;;;;;;;;;6220529;28;20152;-77
2023/06/09 11:05:04;;;;;;;7.20;6.60;;;;;;;;;;6207075;28;20054;-75
2023/06/09 11:08:07;;;;;;;7.15;6.55;;;;;;;;;;6213456;28;20220;-77
2023/06/09 11:11:15;;;;;;;7.30;6.60;;;;;;;;;;6217922;28;20045;-77
2023/06/09 11:14:55;;;;;;;7.00;6.40;;;;;;;;;;6214010;28;20085;-77
2023/06/09 11:18:14;;;;;;;7.20;6.60;;;;;;;;;;6235075;28;20183;-77
2023/06/09 11:21:19;;;;;;;7.65;7.00;;;;;;;;;;6212615;28;20061;-77
2023/06/09 11:24:22;;;;;;;8.73;7.40;;;;;;;;;;6214550;28;20049;-78
2023/06/09 11:27:24;;;;;;;9.90;7.13;;;;;;;;;;6219727;28;20821;-77
2023/06/09 11:30:32;;;;;;;8.20;7.40;;;;;;;;;;6206036;28;20049;-77
2023/06/09 11:33:40;;;;;;;7.85;7.15;;;;;;;;;;6216675;28;20450;-78
2023/06/09 11:36:47;;;;;;;7.88;6.95;;;;;;;;;;6218252;28;20050;-76
2023/06/09 11:39:50;;;;;;;8.13;6.70;;;;;;;;;;6235061;28;20056;-77
2023/06/09 11:42:52;;;;;;;8.93;7.35;;;;;;;;;;6215787;28;20096;-76
2023/06/09 11:46:01;;;;;;;7.72;6.80;;;;;;;;;;6218035;28;20068;-77
2023/06/09 11:49:07;;;;;;;7.47;6.80;;;;;;;;;;6220522;28;20816;-76
2023/06/09 11:52:08;;;;;;;7.80;7.20;;;;;;;;;;6207518;28;20049;-77
2023/06/09 11:55:13;;;;;;;7.05;6.45;;;;;;;;;;6225830;28;20069;-75
2023/06/09 11:58:16;;;;;;;6.72;6.13;;;;;;;;;;6187089;28;20050;-76
2023/06/09 12:01:19;;;;;;;7.03;6.38;;;;;;;;;;6217427;28;20068;-77
2023/06/09 12:04:21;;;;;;;7.28;6.68;;;;;;;;;;6224923;28;20061;-78
2023/06/09 12:07:23;;;;;;;7.40;6.72;;;;;;;;;;6220815;28;20045;-78
2023/06/09 12:10:27;;;;;;;7.32;6.60;;;;;;;;;;6222626;28;20037;-77
2023/06/09 12:13:29;;;;;;;6.88;6.30;;;;;;;;;;6194327;28;20058;-77
2023/06/09 12:16:31;;;;;;;7.53;6.40;;;;;;;;;;6213978;28;20046;-78
2023/06/09 12:19:33;;;;;;;7.07;6.43;;;;;;;;;;6233814;28;20045;-76
2023/06/09 12:22:38;;;;;;;;;;;;;;;;;;6219970;28;20041;-76
2023/06/09 12:25:40;;;;;;;6.60;6.00;;;;;;;;;;6215521;28;20303;-77
2023/06/09 12:28:43;;;;;;;7.07;6.03;;;;;;;;;;6218644;28;20049;-79
2023/06/09 12:31:45;;;;;;;;;;;;;;;;;;6199713;28;20057;-77
2023/06/09 12:34:47;;;;;;;8.40;5.55;;;;;;;;;;6221720;28;19928;-77
2023/06/09 12:37:49;;;;;;;6.25;5.75;;;;;;;;;;6218702;28;20049;-77
2023/06/09 12:40:56;;;;;;;8.50;5.45;;;;;;;;;;6210639;28;20042;-78
2023/06/09 12:44:00;;;;;;;6.53;5.82;;;;;;;;;;6211604;28;20501;-79
2023/06/09 12:47:02;;;;;;;7.50;5.95;;;;;;;;;;6220182;28;20045;-78
2023/06/09 12:50:12;;;;;;;6.30;5.72;;;;;;;;;;6216832;28;20503;-77
2023/06/09 12:53:14;;;;;;;6.82;6.18;;;;;;;;;;6228463;28;20074;-78
2023/06/09 12:56:16;;;;;;;;;;;;;;;;;;6226662;28;20057;-78
2023/06/09 12:59:18;;;;;;;5.85;5.35;;;;;;;;;;6227322;28;19955;-79
2023/06/09 13:02:20;;;;;;;6.45;5.85;;;;;;;;;;6227183;28;20037;-79
2023/06/09 13:05:23;;;;;;;8.00;6.03;;;;;;;;;;6229955;28;20046;-78
2023/06/09 13:08:25;;;;;;;6.65;5.95;;;;;;;;;;6232707;28;20041;-78
2023/06/09 13:11:27;;;;;;;6.53;5.72;;;;;;;;;;6238163;28;20048;-75
2023/06/09 13:14:28;;;;;;;5.82;5.28;;;;;;;;;;6229866;28;20048;-79
2023/06/09 13:17:30;;;;;;;7.43;5.82;;;;;;;;;;6215558;28;20046;-79
2023/06/09 13:20:32;;;;;;;6.30;5.70;;;;;;;;;;6217715;28;20046;-78
2023/06/09 13:23:34;;;;;;;7.22;5.70;;;;;;;;;;6226758;28;20056;-79
2023/06/09 13:26:36;;;;;;;6.68;6.03;;;;;;;;;;6218769;28;20170;-76
2023/06/09 13:29:37;;;;;;;6.22;5.72;;;;;;;;;;6224827;28;20049;-79
2023/06/09 13:32:40;;;;;;;6.35;5.68;;;;;;;;;;6228152;28;20048;-77
2023/06/09 13:35:42;;;;;;;6.25;5.28;;;;;;;;;;6217201;28;20072;-78
2023/06/09 13:38:44;;;;;;;;;;;;;;;;;;6221248;28;20080;-77
2023/06/09 13:41:45;;;;;;;5.67;5.27;;;;;;;;;;6219046;28;19925;-78
2023/06/09 13:44:47;;;;;;;6.20;5.60;;;;;;;;;;6222148;28;20663;-80
2023/06/09 13:47:51;;;;;;;6.05;5.45;;;;;;;;;;6223545;28;20048;-79
2023/06/09 13:50:56;;;;;;;6.47;5.63;;;;;;;;;;6221644;28;20037;-79
2023/06/09 13:53:58;;;;;;;6.22;5.63;;;;;;;;;;6216501;28;20159;-78
2023/06/09 13:57:00;;;;;;;6.07;5.53;;;;;;;;;;6229129;28;20046;-77
2023/06/09 14:00:03;;;;;;;6.57;5.97;;;;;;;;;;6221341;28;20060;-78
2023/06/09 14:03:04;;;;;;;6.70;6.10;;;;;;;;;;6202086;28;20050;-78
2023/06/09 14:06:06;;;;;;;6.65;5.88;;;;;;;;;;6212903;28;20069;-77
2023/06/09 14:09:10;;;;;;;6.93;6.22;;;;;;;;;;6224147;28;20037;-78
2023/06/09 14:12:11;;;;;;;6.90;6.28;;;;;;;;;;6238115;28;20079;-77
2023/06/09 14:15:15;;;;;;;7.47;6.75;;;;;;;;;;6239618;28;20048;-77
2023/06/09 14:18:29;;;;;;;7.63;6.82;;;;;;;;;;6210343;28;20045;-79
2023/06/09 14:21:31;;;;;;;8.73;7.53;;;;;;;;;;6229466;28;20054;-77
2023/06/09 14:24:34;;;;;;;8.90;7.07;;;;;;;;;;6231766;28;20037;-77
2023/06/09 14:27:35;;;;;;;7.63;6.68;;;;;;;;;;6225074;28;20048;-78
2023/06/09 14:30:37;;;;;;;7.82;7.03;;;;;;;;;;6222620;28;20526;-77
2023/06/09 14:33:39;;;;;;;8.43;7.63;;;;;;;;;;6228085;28;20056;-77
2023/06/09 14:36:40;;;;;;;6.75;6.15;;;;;;;;;;6221765;28;20049;-79
2023/06/09 14:39:42;;;;;;;6.78;6.22;;;;;;;;;;6226744;28;20049;-81
2023/06/09 14:42:48;;;;;;;6.30;5.65;;;;;;;;;;6228716;28;20555;-81
2023/06/09 14:45:50;;;;;;;6.45;5.53;;;;;;;;;;6213613;28;20053;-80
2023/06/09 14:48:52;;;;;;;6.28;5.78;;;;;;;;;;6231518;28;20046;-80
2023/06/09 14:51:53;;;;;;;7.05;5.95;;;;;;;;;;6229016;28;20391;-80
2023/06/09 14:54:55;;;;;;;6.70;6.20;;;;;;;;;;6232391;28;20045;-80
2023/06/09 14:57:59;;;;;;;6.55;6.03;;;;;;;;;;6231922;28;20049;-81
2023/06/09 15:01:02;;;;;;;7.95;5.80;;;;;;;;;;6236863;28;20504;-80
2023/06/09 15:04:03;;;;;;;6.53;5.65;;;;;;;;;;6236704;28;20121;-80
2023/06/09 15:07:06;;;;;;;5.55;5.10;;;;;;;;;;6231458;28;20056;-80
2023/06/09 15:10:08;;;;;;;5.90;5.40;;;;;;;;;;6225252;28;20057;-80
2023/06/09 15:13:11;;;;;;;5.97;5.47;;;;;;;;;;6224759;28;20046;-81
2023/06/09 15:16:12;;;;;;;5.90;5.38;;;;;;;;;;6233684;28;20048;-81
2023/06/09 15:19:15;;;;;;;6.25;5.70;;;;;;;;;;6232823;28;20061;-81
2023/06/09 15:22:17;;;;;;;6.43;5.80;;;;;;;;;;6217531;28;20046;-80
2023/06/09 15:25:28;;;;;;;6.22;5.72;;;;;;;;;;6230967;28;20050;-80
2023/06/09 15:28:30;;;;;;;6.30;5.70;;;;;;;;;;6235104;28;20049;-79
2023/06/09 15:31:32;;;;;;;6.25;5.75;;;;;;;;;;6230533;28;20053;-80
2023/06/09 15:34:33;;;;;;;6.93;5.72;;;;;;;;;;6231658;28;20067;-79
2023/06/09 15:37:35;;;;;;;6.85;6.15;;;;;;;;;;6232816;28;20060;-78
2023/06/09 15:40:43;;;;;;;7.10;6.22;;;;;;;;;;6213725;28;20046;-80
2023/06/09 15:43:45;;;;;;;6.75;6.05;;;;;;;;;;6225318;28;20042;-79
2023/06/09 15:46:46;;;;;;;6.83;5.87;;;;;;;;;;6228042;28;20041;-81
2023/06/09 15:49:48;;;;;;;6.78;6.07;;;;;;;;;;6222188;28;20061;-80
2023/06/09 15:52:50;;;;;;;6.90;6.30;;;;;;;;;;6227493;28;20056;-82
2023/06/09 15:55:52;;;;;;;7.17;6.40;;;;;;;;;;6228870;28;20445;-81
2023/06/09 15:58:53;;;;;;;7.03;6.43;;;;;;;;;;6232999;28;20049;-82
2023/06/09 16:01:56;;;;;;;7.43;6.55;;;;;;;;;;6211696;28;20133;-81
2023/06/09 16:04:57;;;;;;;6.95;6.32;;;;;;;;;;6227831;28;20427;-76
2023/06/09 16:08:02;;;;;;;6.67;6.03;;;;;;;;;;6208068;28;20050;-81
2023/06/09 16:11:06;;;;;;;7.40;6.70;;;;;;;;;;6223178;28;20168;-78
2023/06/09 16:14:07;;;;;;;7.28;6.57;;;;;;;;;;6238064;28;20042;-78
2023/06/09 16:17:09;;;;;;;8.32;6.68;;;;;;;;;;6227578;28;20049;-80
2023/06/09 16:20:11;;;;;;;8.15;7.38;;;;;;;;;;6228970;28;20447;-81
2023/06/09 16:23:13;;;;;;;7.50;6.80;;;;;;;;;;6229550;28;20046;-81
2023/06/09 16:26:15;;;;;;;7.32;6.63;;;;;;;;;;6224953;28;20113;-82
2023/06/09 16:29:20;;;;;;;10.75;7.00;;;;;;;;;;6225054;28;20057;-80
2023/06/09 16:32:24;;;;;;;7.22;6.53;;;;;;;;;;6224859;28;20108;-82
2023/06/09 16:35:26;;;;;;;7.80;6.90;;;;;;;;;;6232127;28;20038;-82
2023/06/09 16:38:27;;;;;;;8.07;6.90;;;;;;;;;;6234351;28;20053;-80
2023/06/09 16:41:29;;;;;;;7.90;7.20;;;;;;;;;;6221743;28;20056;-81
2023/06/09 16:44:31;;;;;;;7.50;6.90;;;;;;;;;;6226615;28;20050;-81
2023/06/09 16:47:32;;;;;;;7.63;6.88;;;;;;;;;;6202976;28;20420;-82
2023/06/09 16:50:34;;;;;;;8.20;7.37;;;;;;;;;;6219947;28;20067;-81
2023/06/09 16:53:36;;;;;;;8.15;6.78;;;;;;;;;;6223866;28;20042;-81
2023/06/09 16:56:38;;;;;;;7.77;6.90;;;;;;;;;;6208436;28;20065;-83
2023/06/09 16:59:39;;;;;;;8.17;7.43;;;;;;;;;;6233418;28;20041;-82
2023/06/09 17:02:41;;;;;;;11.67;7.27;;;;;;;;;;6228381;28;20456;-83
2023/06/09 17:05:43;;;;;;;9.20;7.75;;;;;;;;;;6226142;28;20811;-83
2023/06/09 17:08:47;;;;;;;9.00;7.50;;;;;;;;;;6227669;28;20049;-83
2023/06/09 17:11:49;;;;;;;7.80;7.10;;;;;;;;;;6226188;28;20046;-81
2023/06/09 17:14:50;;;;;;;8.52;7.38;;;;;;;;;;6200855;28;20047;-80
2023/06/09 17:17:52;;;;;;;7.90;7.17;;;;;;;;;;6222295;28;20049;-80
2023/06/09 17:20:54;;;;;;;7.97;7.18;;;;;;;;;;6223468;28;20049;-80
2023/06/09 17:23:56;;;;;;;7.47;6.78;;;;;;;;;;6250105;28;20046;-80
2023/06/09 17:26:57;;;;;;;8.67;7.77;;;;;;;;;;6221565;28;20046;-81
2023/06/09 17:29:59;;;;;;;7.97;7.20;;;;;;;;;;6220908;28;20053;-80
2023/06/09 17:33:15;;;;;;;9.23;7.50;;;;;;;;;;6224849;28;20045;-81
2023/06/09 17:36:19;;;;;;;8.88;7.18;;;;;;;;;;6226110;28;20053;-80
2023/06/09 17:39:21;;;;;;;8.07;7.18;;;;;;;;;;6221856;28;20046;-81
2023/06/09 17:42:23;;;;;;;8.10;6.93;;;;;;;;;;6222383;28;20415;-80
2023/06/09 17:45:25;;;;;;;7.40;6.70;;;;;;;;;;6225982;28;20068;-81
2023/06/09 17:48:26;;;;;;;8.75;7.25;;;;;;;;;;6222716;28;20503;-81
2023/06/09 17:51:28;;;;;;;8.37;7.40;;;;;;;;;;6221441;28;20049;-81
2023/06/09 17:54:35;;;;;;;9.90;7.75;;;;;;;;;;6225868;28;20053;-80
2023/06/09 17:57:38;;;;;;;8.10;7.22;;;;;;;;;;6233486;28;20050;-81
2023/06/09 18:00:39;;;;;;;8.70;7.75;;;;;;;;;;6239066;28;20057;-81
2023/06/09 18:03:41;;;;;;;8.37;7.43;;;;;;;;;;6234554;28;20424;-80
2023/06/09 18:06:46;;;;;;;8.27;7.50;;;;;;;;;;6229281;28;20530;-79
2023/06/09 18:09:48;;;;;;;8.50;7.65;;;;;;;;;;6234331;28;20561;-81
2023/06/09 18:12:51;;;;;;;9.20;7.13;;;;;;;;;;6241785;28;20057;-82
2023/06/09 18:15:52;;;;;;;9.48;8.10;;;;;;;;;;6231413;28;20472;-81
2023/06/09 18:18:54;;;;;;;10.27;8.27;;;;;;;;;;6228413;28;20106;-81
2023/06/09 18:21:56;;;;;;;8.77;7.90;;;;;;;;;;6234896;28;20985;-81
2023/06/09 18:24:58;;;;;;;8.90;7.87;;;;;;;;;;6234607;28;20037;-79